createdAt,value
2023-03-16T00:01:17.094Z,10.24
2023-03-16T00:16:19.370Z,9.81
2023-03-16T00:31:21.681Z,9.8
2023-03-16T00:46:24.069Z,10.43
2023-03-16T01:01:26.289Z,10.25
2023-03-16T01:16:28.934Z,9.8
2023-03-16T01:31:31.276Z,9.61
2023-03-16T01:46:33.675Z,9.26
2023-03-16T02:01:36.262Z,8.37
2023-03-16T02:16:38.544Z,8.37
2023-03-16T02:31:40.872Z,7.83
2023-03-16T02:46:43.130Z,7.26
2023-03-16T03:01:45.460Z,6.69
2023-03-16T03:16:47.798Z,6.04
2023-03-16T03:46:51.381Z,5.29
2023-03-16T04:01:53.786Z,5.51
2023-03-16T04:16:56.172Z,5.32
2023-03-16T04:31:58.447Z,5.09
2023-03-16T04:47:00.712Z,4.82
2023-03-16T05:02:02.908Z,4.41
2023-03-16T05:17:05.157Z,4.45
2023-03-16T05:32:07.399Z,3.92
2023-03-16T05:47:10.092Z,3.64
2023-03-16T06:02:12.339Z,3.41
2023-03-16T06:17:14.616Z,3.46
2023-03-16T06:32:16.977Z,3.22
2023-03-16T06:47:19.198Z,3.05
2023-03-16T07:02:21.503Z,2.84
2023-03-16T07:17:23.829Z,2.62
2023-03-16T07:32:26.163Z,2.54
2023-03-16T07:47:28.476Z,2.5
2023-03-16T08:02:30.762Z,2.37
2023-03-16T08:17:32.981Z,2.12
2023-03-16T08:32:35.330Z,1.81
2023-03-16T08:47:37.628Z,1.68
2023-03-16T09:02:39.853Z,1.77
2023-03-16T09:17:42.122Z,1.58
2023-03-16T09:32:44.390Z,1.58
2023-03-16T09:47:46.812Z,1.4
2023-03-16T10:02:49.157Z,1.21
2023-03-16T10:17:51.442Z,0.87
2023-03-16T10:32:53.863Z,1.14
2023-03-16T10:47:56.132Z,1.07
2023-03-16T11:02:58.393Z,1.07
2023-03-16T11:18:00.602Z,0.66
2023-03-16T11:33:02.829Z,0.55
2023-03-16T11:48:05.079Z,0.44
2023-03-16T12:03:07.507Z,0.23
2023-03-16T12:18:09.772Z,0.16
2023-03-16T12:33:12.027Z,0.13
2023-03-16T12:48:14.291Z,0.11
2023-03-16T13:03:16.559Z,0.21
2023-03-16T13:18:18.832Z,0.04
2023-03-16T13:33:21.075Z,-0.25
2023-03-16T13:48:23.400Z,-0.37
2023-03-16T14:03:25.629Z,-0.49
2023-03-16T14:18:27.904Z,-0.57
2023-03-16T14:33:30.272Z,-0.64
2023-03-16T14:48:32.538Z,-0.61
2023-03-16T15:03:34.803Z,3.57
2023-03-16T15:18:37.074Z,2.59
2023-03-16T15:33:39.330Z,2.32
2023-03-16T15:48:41.562Z,4.04
2023-03-16T16:03:43.868Z,3.53
2023-03-16T16:18:46.194Z,9.76
2023-03-16T16:33:48.452Z,14.5
2023-03-16T16:48:50.733Z,12.18
2023-03-16T17:03:53.070Z,7.47
2023-03-16T17:18:55.301Z,6.82
2023-03-16T17:33:57.516Z,6.72
2023-03-16T17:48:59.741Z,6.87
2023-03-16T18:04:02.038Z,9.54
2023-03-16T18:19:04.570Z,9.43
2023-03-16T18:34:06.807Z,9.02
2023-03-16T18:49:09.076Z,9.31
2023-03-16T19:04:11.296Z,9.61
2023-03-16T19:19:13.611Z,9.49
2023-03-16T19:34:15.885Z,10.21
2023-03-16T19:49:18.107Z,10.88
2023-03-16T20:04:20.443Z,11.8
2023-03-16T20:19:22.877Z,12.66
2023-03-16T20:34:25.130Z,13.23
2023-03-16T20:49:27.376Z,13.63
2023-03-16T21:04:29.625Z,14.14
2023-03-16T21:19:31.872Z,13.94
2023-03-16T21:34:34.448Z,13.68
2023-03-16T21:49:36.699Z,13.28
2023-03-16T22:04:39.093Z,13.76
2023-03-16T22:19:41.299Z,13.62
2023-03-16T22:34:43.617Z,13.77
2023-03-16T22:49:45.812Z,13.88
2023-03-16T23:04:48.147Z,13.12
2023-03-16T23:19:50.453Z,12.92
2023-03-16T23:34:52.668Z,13.7
2023-03-16T23:49:55.127Z,13.9
